createdAt,value
2022-08-03T00:00:41.555Z,3.83
2022-08-03T00:03:10.781Z,3.70
2022-08-03T00:05:40.058Z,3.33
2022-08-03T00:08:26.966Z,3.97
2022-08-03T00:10:53.812Z,3.37
2022-08-03T00:13:22.949Z,3.40
2022-08-03T00:15:50.044Z,3.70
2022-08-03T00:18:21.679Z,3.83
2022-08-03T00:20:50.945Z,3.83
2022-08-03T00:23:17.936Z,3.90
2022-08-03T00:25:44.834Z,3.57
2022-08-03T00:28:14.685Z,3.90
2022-08-03T00:30:47.095Z,3.60
2022-08-03T00:33:17.005Z,3.57
2022-08-03T00:35:50.461Z,3.70
2022-08-03T00:38:20.820Z,3.53
2022-08-03T00:40:49.917Z,3.93
2022-08-03T00:43:16.839Z,4.00
2022-08-03T00:45:48.614Z,3.63
2022-08-03T00:48:32.802Z,4.23
2022-08-03T00:51:00.932Z,3.80
2022-08-03T00:53:33.241Z,3.80
2022-08-03T00:56:00.253Z,4.20
2022-08-03T00:58:31.914Z,4.03
2022-08-03T01:00:58.964Z,4.20
2022-08-03T01:03:25.783Z,3.50
2022-08-03T01:06:00.038Z,4.20
2022-08-03T01:08:56.915Z,4.03
2022-08-03T01:12:00.554Z,3.70
2022-08-03T01:14:39.391Z,3.77
2022-08-03T01:17:29.059Z,3.80
2022-08-03T01:20:09.453Z,3.60
2022-08-03T01:23:03.685Z,3.80
2022-08-03T01:25:54.892Z,3.87
2022-08-03T01:29:13.876Z,3.67
2022-08-03T01:32:59.657Z,3.77
2022-08-03T01:34:46.942Z,3.43
2022-08-03T01:37:27.800Z,3.40
2022-08-03T01:40:10.301Z,3.70
2022-08-03T01:42:39.774Z,3.57
2022-08-03T01:45:12.952Z,3.87
2022-08-03T01:47:45.513Z,3.70
2022-08-03T01:50:19.656Z,3.90
2022-08-03T01:52:50.389Z,3.63
2022-08-03T01:55:20.547Z,3.70
2022-08-03T01:58:06.063Z,3.60
2022-08-03T02:00:39.959Z,3.63
2022-08-03T02:03:08.602Z,3.70
2022-08-03T02:05:40.770Z,3.87
2022-08-03T02:08:13.479Z,3.77
2022-08-03T02:10:48.444Z,3.63
2022-08-03T02:13:20.129Z,3.97
2022-08-03T02:15:51.912Z,3.80
2022-08-03T02:18:23.950Z,3.60
2022-08-03T02:20:52.118Z,3.60
2022-08-03T02:23:21.392Z,3.53
2022-08-03T02:26:02.164Z,3.50
2022-08-03T02:28:40.677Z,3.63
2022-08-03T02:31:15.248Z,3.40
2022-08-03T02:33:55.197Z,3.70
2022-08-03T02:36:31.484Z,3.50
2022-08-03T02:39:05.133Z,3.50
2022-08-03T02:41:49.063Z,3.53
2022-08-03T02:44:25.492Z,3.87
2022-08-03T02:47:02.014Z,3.87
2022-08-03T02:49:49.446Z,3.50
2022-08-03T02:52:21.868Z,3.83
2022-08-03T02:54:53.620Z,3.83
2022-08-03T02:57:26.694Z,3.70
2022-08-03T02:59:57.504Z,3.50
2022-08-03T03:02:25.993Z,3.80
2022-08-03T03:05:53.654Z,3.23
2022-08-03T03:07:51.792Z,3.53
2022-08-03T03:10:26.881Z,3.53
2022-08-03T03:12:58.012Z,3.73
2022-08-03T03:15:35.768Z,4.03
2022-08-03T03:18:04.497Z,3.90
2022-08-03T03:20:36.407Z,4.13
2022-08-03T03:23:05.123Z,3.90
2022-08-03T03:25:33.812Z,3.60
2022-08-03T03:28:06.455Z,4.43
2022-08-03T03:30:36.295Z,3.73
2022-08-03T03:33:03.434Z,3.57
2022-08-03T03:35:31.305Z,3.97
2022-08-03T03:38:10.204Z,3.80
2022-08-03T03:40:38.848Z,3.87
2022-08-03T03:43:13.014Z,4.03
2022-08-03T03:45:46.808Z,4.07
2022-08-03T03:48:16.252Z,3.90
2022-08-03T03:50:47.277Z,3.70
2022-08-03T03:53:14.538Z,4.10
2022-08-03T03:55:59.019Z,3.97
2022-08-03T03:58:31.789Z,4.23
2022-08-03T04:01:01.545Z,4.00
2022-08-03T04:03:28.631Z,3.80
2022-08-03T04:06:14.352Z,4.47
2022-08-03T04:08:59.980Z,4.20
2022-08-03T04:11:38.988Z,4.63
2022-08-03T04:14:13.133Z,3.77
2022-08-03T04:16:47.244Z,4.07
2022-08-03T04:19:40.770Z,3.90
2022-08-03T04:22:20.273Z,4.10
2022-08-03T04:24:53.563Z,4.03
2022-08-03T04:27:28.666Z,4.30
2022-08-03T04:30:02.184Z,4.10
2022-08-03T04:32:30.694Z,4.40
2022-08-03T04:35:01.072Z,4.30
2022-08-03T04:37:46.077Z,4.50
2022-08-03T04:40:37.115Z,4.90
2022-08-03T04:43:06.201Z,5.37
2022-08-03T04:45:36.360Z,4.53
2022-08-03T04:48:04.493Z,4.67
2022-08-03T04:50:34.522Z,4.40
2022-08-03T04:53:01.539Z,4.70
2022-08-03T04:55:33.149Z,4.40
2022-08-03T04:58:06.614Z,4.73
2022-08-03T05:00:36.056Z,4.87
2022-08-03T05:03:02.885Z,4.97
2022-08-03T05:05:50.101Z,4.33
2022-08-03T05:08:27.662Z,4.60
2022-08-03T05:10:59.299Z,4.47
2022-08-03T05:13:26.616Z,5.37
2022-08-03T05:15:53.784Z,5.37
2022-08-03T05:18:23.679Z,4.80
2022-08-03T05:20:50.635Z,4.70
2022-08-03T05:23:24.389Z,4.50
2022-08-03T05:25:51.183Z,4.90
2022-08-03T05:28:20.431Z,4.63
2022-08-03T05:30:49.653Z,4.40
2022-08-03T05:33:16.547Z,4.30
2022-08-03T05:36:01.347Z,4.30
2022-08-03T05:38:34.531Z,4.90
2022-08-03T05:41:22.540Z,4.30
2022-08-03T05:43:53.555Z,4.43
2022-08-03T05:46:25.688Z,4.20
2022-08-03T05:48:52.700Z,4.57
2022-08-03T05:51:19.841Z,4.67
2022-08-03T05:53:46.718Z,4.10
2022-08-03T05:56:16.928Z,4.50
2022-08-03T05:58:47.482Z,5.00
2022-08-03T06:01:18.285Z,4.90
2022-08-03T06:03:46.112Z,4.23
2022-08-03T06:06:18.247Z,4.47
2022-08-03T06:08:46.588Z,4.20
2022-08-03T06:11:18.616Z,5.37
2022-08-03T06:13:45.458Z,4.00
2022-08-03T06:16:12.339Z,4.50
2022-08-03T06:18:40.418Z,4.40
2022-08-03T06:21:15.609Z,4.57
2022-08-03T06:23:53.090Z,4.43
2022-08-03T06:26:24.479Z,4.67
2022-08-03T06:28:54.860Z,4.63
2022-08-03T06:31:33.193Z,4.00
2022-08-03T06:34:33.975Z,4.00
2022-08-03T06:37:02.114Z,4.20
2022-08-03T06:39:32.200Z,3.57
2022-08-03T06:41:59.037Z,3.70
2022-08-03T06:44:28.129Z,4.07
2022-08-03T06:46:58.600Z,3.93
2022-08-03T06:49:27.701Z,4.20
2022-08-03T06:52:05.506Z,4.33
2022-08-03T06:54:33.832Z,4.13
2022-08-03T06:57:01.244Z,3.90
2022-08-03T07:00:06.051Z,3.67
2022-08-03T07:02:21.041Z,3.60
2022-08-03T07:04:52.942Z,3.80
2022-08-03T07:07:20.534Z,3.67
2022-08-03T07:09:57.354Z,3.73
2022-08-03T07:12:29.654Z,3.67
2022-08-03T07:15:01.646Z,3.40
2022-08-03T07:17:36.820Z,3.80
2022-08-03T07:20:10.890Z,3.30
2022-08-03T07:22:37.668Z,3.60
2022-08-03T07:25:07.502Z,3.20
2022-08-03T07:27:39.380Z,3.50
2022-08-03T07:30:12.225Z,3.60
2022-08-03T07:32:49.845Z,3.43
2022-08-03T07:35:25.354Z,3.23
2022-08-03T07:37:58.150Z,3.33
2022-08-03T07:40:31.510Z,3.30
2022-08-03T07:42:59.838Z,3.27
2022-08-03T07:45:26.914Z,3.37
2022-08-03T07:48:01.466Z,4.07
2022-08-03T07:50:30.925Z,3.30
2022-08-03T07:53:00.809Z,3.40
2022-08-03T07:55:28.658Z,3.00
2022-08-03T07:58:24.016Z,3.00
2022-08-03T08:00:53.609Z,3.17
2022-08-03T08:03:21.837Z,3.00
2022-08-03T08:05:49.636Z,3.30
2022-08-03T08:08:16.495Z,3.17
2022-08-03T08:10:58.126Z,3.00
2022-08-03T08:13:28.100Z,3.33
2022-08-03T08:15:54.960Z,2.97
2022-08-03T08:18:21.956Z,3.23
2022-08-03T08:20:48.777Z,3.10
2022-08-03T08:23:37.959Z,3.20
2022-08-03T08:26:09.878Z,3.03
2022-08-03T08:28:39.444Z,2.90
2022-08-03T08:31:06.615Z,2.80
2022-08-03T08:34:01.438Z,3.50
2022-08-03T08:36:25.517Z,3.07
2022-08-03T08:38:54.521Z,3.30
2022-08-03T08:41:21.288Z,2.77
2022-08-03T08:43:50.458Z,2.70
2022-08-03T08:46:23.206Z,3.20
2022-08-03T08:48:58.927Z,2.83
2022-08-03T08:52:00.378Z,2.70
2022-08-03T08:54:26.957Z,2.73
2022-08-03T08:56:59.251Z,2.70
2022-08-03T08:59:48.269Z,2.90
2022-08-03T09:02:16.281Z,3.53
2022-08-03T09:04:48.794Z,3.07
2022-08-03T09:07:20.400Z,2.80
2022-08-03T09:10:10.637Z,3.23
2022-08-03T09:12:59.439Z,2.70
2022-08-03T09:15:32.151Z,3.30
2022-08-03T09:18:04.819Z,3.23
2022-08-03T09:20:34.550Z,2.90
2022-08-03T09:23:44.800Z,3.10
2022-08-03T09:26:00.023Z,2.67
2022-08-03T09:28:58.051Z,3.30
2022-08-03T09:31:43.751Z,2.80
2022-08-03T09:34:19.552Z,3.30
2022-08-03T09:36:50.640Z,2.97
2022-08-03T09:39:41.446Z,2.90
2022-08-03T09:42:27.459Z,2.93
2022-08-03T09:44:58.033Z,2.87
2022-08-03T09:47:34.553Z,2.77
2022-08-03T09:50:07.856Z,2.90
2022-08-03T09:52:52.134Z,3.33
2022-08-03T09:56:30.422Z,2.80
2022-08-03T09:58:10.314Z,3.30
2022-08-03T10:01:06.212Z,2.80
2022-08-03T10:04:02.826Z,2.87
2022-08-03T10:06:29.066Z,3.10
2022-08-03T10:09:13.502Z,3.00
2022-08-03T10:11:44.310Z,2.83
2022-08-03T10:14:19.300Z,3.30
2022-08-03T10:16:48.776Z,2.93
2022-08-03T10:19:19.375Z,2.90
2022-08-03T10:22:10.491Z,2.93
2022-08-03T10:24:51.677Z,3.20
2022-08-03T10:27:21.643Z,2.90
2022-08-03T10:29:54.987Z,2.93
2022-08-03T10:32:38.559Z,3.00
2022-08-03T10:35:18.947Z,2.70
2022-08-03T10:37:59.648Z,2.90
2022-08-03T10:40:51.008Z,3.03
2022-08-03T10:43:35.955Z,2.70
2022-08-03T10:46:08.602Z,3.00
2022-08-03T10:48:37.469Z,3.17
2022-08-03T10:51:04.836Z,2.80
2022-08-03T10:53:54.755Z,2.93
2022-08-03T10:56:52.618Z,2.87
2022-08-03T10:59:46.237Z,3.13
2022-08-03T11:02:18.493Z,2.90
2022-08-03T11:04:45.290Z,2.73
2022-08-03T11:07:23.264Z,2.80
2022-08-03T11:09:56.668Z,3.30
2022-08-03T11:12:33.610Z,3.00
2022-08-03T11:15:06.791Z,2.90
2022-08-03T11:17:46.378Z,2.90
2022-08-03T11:20:58.614Z,2.90
2022-08-03T11:24:05.072Z,2.83
2022-08-03T11:26:38.310Z,2.77
2022-08-03T11:29:31.141Z,2.78
2022-08-03T11:32:00.926Z,2.60
2022-08-03T11:34:27.990Z,3.42
2022-08-03T11:37:28.555Z,2.90
2022-08-03T11:40:02.683Z,3.50
2022-08-03T11:42:35.445Z,2.97
2022-08-03T11:45:07.456Z,2.80
2022-08-03T11:47:50.242Z,2.60
2022-08-03T11:50:19.920Z,3.28
2022-08-03T11:52:47.676Z,3.30
2022-08-03T11:55:21.666Z,2.97
2022-08-03T11:59:01.492Z,3.10
2022-08-03T12:00:40.552Z,2.42
2022-08-03T12:03:14.354Z,3.00
2022-08-03T12:05:52.830Z,3.00
2022-08-03T12:08:31.150Z,3.10
2022-08-03T12:11:01.694Z,3.40
2022-08-03T12:14:08.823Z,3.17
2022-08-03T12:16:28.782Z,3.17
2022-08-03T12:19:08.533Z,3.30
2022-08-03T12:21:57.356Z,4.03
2022-08-03T12:24:24.630Z,3.45
2022-08-03T12:26:59.002Z,3.60
2022-08-03T12:29:27.326Z,3.97
2022-08-03T12:31:56.849Z,3.70
2022-08-03T12:34:23.720Z,4.85
2022-08-03T12:37:00.948Z,4.00
2022-08-03T12:39:31.568Z,3.50
2022-08-03T12:42:00.757Z,4.05
2022-08-03T12:44:36.900Z,3.63
2022-08-03T12:47:06.675Z,3.63
2022-08-03T12:49:52.542Z,3.67
2022-08-03T12:52:27.123Z,4.00
2022-08-03T12:55:01.164Z,3.25
2022-08-03T12:57:44.157Z,4.35
2022-08-03T13:00:21.570Z,3.83
2022-08-03T13:03:39.663Z,3.88
2022-08-03T13:05:48.616Z,4.20
2022-08-03T13:08:26.270Z,3.50
2022-08-03T13:10:53.160Z,3.75
2022-08-03T13:13:41.120Z,3.50
2022-08-03T13:16:17.187Z,3.67
2022-08-03T13:18:49.669Z,3.60
2022-08-03T13:21:17.058Z,3.50
2022-08-03T13:23:44.325Z,3.90
2022-08-03T13:26:14.581Z,3.78
2022-08-03T13:28:46.273Z,3.70
2022-08-03T13:31:13.574Z,3.53
2022-08-03T13:33:40.918Z,3.65
2022-08-03T13:36:10.184Z,4.32
2022-08-03T13:38:39.143Z,3.90
2022-08-03T13:41:06.227Z,4.38
2022-08-03T13:43:35.228Z,4.40
2022-08-03T13:46:02.062Z,3.78
2022-08-03T13:48:36.776Z,3.80
2022-08-03T13:51:05.656Z,3.97
2022-08-03T13:53:52.444Z,4.20
2022-08-03T13:56:19.391Z,4.20
2022-08-03T13:58:51.285Z,4.07
2022-08-03T14:01:53.558Z,3.80
2022-08-03T14:04:21.928Z,4.00
2022-08-03T14:06:49.328Z,3.80
2022-08-03T14:09:23.755Z,3.97
2022-08-03T14:12:07.545Z,3.90
2022-08-03T14:14:38.066Z,3.70
2022-08-03T14:17:05.049Z,3.75
2022-08-03T14:19:31.837Z,3.67
2022-08-03T14:22:06.756Z,3.88
2022-08-03T14:24:33.805Z,3.72
2022-08-03T14:27:08.991Z,3.90
2022-08-03T14:29:36.236Z,3.80
2022-08-03T14:32:09.717Z,4.00
2022-08-03T14:34:41.608Z,4.00
2022-08-03T14:37:08.638Z,3.90
2022-08-03T14:42:24.785Z,3.38
2022-08-03T14:45:00.721Z,3.90
2022-08-03T14:47:30.321Z,3.60
2022-08-03T14:50:34.887Z,3.80
2022-08-03T14:52:46.346Z,3.75
2022-08-03T14:55:15.728Z,3.97
2022-08-03T14:57:42.550Z,3.90
2022-08-03T15:00:12.487Z,4.00
2022-08-03T15:02:39.304Z,3.63
2022-08-03T15:05:10.695Z,4.13
2022-08-03T15:07:37.494Z,5.93
2022-08-03T15:10:07.195Z,4.50
2022-08-03T15:12:36.334Z,4.10
2022-08-03T15:15:05.949Z,3.90
2022-08-03T15:17:35.105Z,4.10
2022-08-03T15:20:26.571Z,3.75
2022-08-03T15:22:54.972Z,3.80
2022-08-03T15:26:28.283Z,4.07
2022-08-03T15:28:13.054Z,4.53
2022-08-03T15:30:42.088Z,3.90
2022-08-03T15:33:09.099Z,3.88
2022-08-03T15:35:36.333Z,4.20
2022-08-03T15:38:08.762Z,5.78
2022-08-03T15:40:39.023Z,4.57
2022-08-03T15:43:08.060Z,4.25
2022-08-03T15:45:36.348Z,3.53
2022-08-03T15:48:09.334Z,3.47
2022-08-03T15:50:36.438Z,3.60
2022-08-03T15:53:04.426Z,3.75
2022-08-03T15:55:36.320Z,3.28
2022-08-03T15:59:09.239Z,4.43
2022-08-03T16:00:57.119Z,3.60
2022-08-03T16:03:28.313Z,3.78
2022-08-03T16:05:57.675Z,3.92
2022-08-03T16:08:29.562Z,3.50
2022-08-03T16:10:59.344Z,4.05
2022-08-03T16:14:04.770Z,3.45
2022-08-03T16:16:16.285Z,3.45
2022-08-03T16:18:45.363Z,3.30
2022-08-03T16:21:18.495Z,3.50
2022-08-03T16:23:47.375Z,3.70
2022-08-03T16:26:14.708Z,3.45
2022-08-03T16:28:41.545Z,3.60
2022-08-03T16:31:09.242Z,3.90
2022-08-03T16:33:38.862Z,3.90
2022-08-03T16:36:08.124Z,3.97
2022-08-03T16:38:37.332Z,3.40
2022-08-03T16:41:04.742Z,3.60
2022-08-03T16:43:35.609Z,3.60
2022-08-03T16:46:04.900Z,3.70
2022-08-03T16:48:31.669Z,3.75
2022-08-03T16:51:01.063Z,4.35
2022-08-03T16:53:42.131Z,3.60
2022-08-03T16:56:16.899Z,3.42
2022-08-03T16:58:44.566Z,3.20
2022-08-03T17:01:22.312Z,3.30
2022-08-03T17:04:04.695Z,3.53
2022-08-03T17:06:45.048Z,3.38
2022-08-03T17:09:20.704Z,3.55
2022-08-03T17:11:50.100Z,3.53
2022-08-03T17:14:28.267Z,3.58
2022-08-03T17:17:05.384Z,3.65
2022-08-03T17:19:40.463Z,3.45
2022-08-03T17:22:19.020Z,3.33
2022-08-03T17:24:57.270Z,3.58
2022-08-03T17:28:50.296Z,3.40
2022-08-03T17:30:20.177Z,3.50
2022-08-03T17:32:56.893Z,3.55
2022-08-03T17:35:36.913Z,3.53
2022-08-03T17:38:14.569Z,3.20
2022-08-03T17:40:48.134Z,3.13
2022-08-03T17:43:44.351Z,3.33
2022-08-03T17:46:12.121Z,3.17
2022-08-03T17:48:41.409Z,3.22
2022-08-03T17:51:17.685Z,3.60
2022-08-03T17:54:00.535Z,3.05
2022-08-03T17:57:22.411Z,3.42
2022-08-03T18:00:22.953Z,3.63
2022-08-03T18:03:57.801Z,3.40
2022-08-03T18:06:35.459Z,3.15
2022-08-03T18:12:07.184Z,3.05
2022-08-03T18:15:01.253Z,3.13
2022-08-03T18:17:55.108Z,3.17
2022-08-03T18:20:34.369Z,2.97
2022-08-03T18:23:06.841Z,3.10
2022-08-03T18:25:45.490Z,3.30
2022-08-03T18:28:23.407Z,3.20
2022-08-03T18:30:55.201Z,3.40
2022-08-03T18:34:16.367Z,3.07
2022-08-03T18:36:21.984Z,3.63
2022-08-03T18:39:02.398Z,3.20
2022-08-03T18:41:34.598Z,3.27
2022-08-03T18:44:53.141Z,3.50
2022-08-03T18:47:19.224Z,3.23
2022-08-03T18:50:33.705Z,3.27
2022-08-03T18:53:16.195Z,3.40
2022-08-03T18:56:03.582Z,3.47
2022-08-03T18:58:47.754Z,3.10
2022-08-03T19:02:00.004Z,3.20
2022-08-03T19:04:35.029Z,3.20
2022-08-03T19:07:09.416Z,3.37
2022-08-03T19:09:52.121Z,3.10
2022-08-03T19:12:37.856Z,3.53
2022-08-03T19:15:12.942Z,3.10
2022-08-03T19:17:50.264Z,3.67
2022-08-03T19:20:26.974Z,3.10
2022-08-03T19:22:59.660Z,3.33
2022-08-03T19:25:35.018Z,3.43
2022-08-03T19:28:06.213Z,3.30
2022-08-03T19:30:40.523Z,3.57
2022-08-03T19:33:15.480Z,4.03
2022-08-03T19:35:55.322Z,3.47
2022-08-03T19:38:28.922Z,4.23
2022-08-03T19:41:03.708Z,4.40
2022-08-03T19:43:53.933Z,5.00
2022-08-03T19:46:37.149Z,4.80
2022-08-03T19:49:15.286Z,4.50
2022-08-03T19:52:01.659Z,4.60
2022-08-03T19:54:54.124Z,4.23
2022-08-03T19:57:28.724Z,3.40
2022-08-03T19:59:57.412Z,3.80
2022-08-03T20:02:26.400Z,3.97
2022-08-03T20:05:00.732Z,3.93
2022-08-03T20:07:31.907Z,3.70
2022-08-03T20:10:05.919Z,3.70
2022-08-03T20:12:38.912Z,4.80
2022-08-03T20:15:07.888Z,7.53
2022-08-03T20:17:54.747Z,6.03
2022-08-03T20:20:47.360Z,5.30
2022-08-03T20:23:19.625Z,10.13
2022-08-03T20:26:00.668Z,9.63
2022-08-03T20:28:50.314Z,6.20
2022-08-03T20:31:30.626Z,4.60
2022-08-03T20:34:06.845Z,4.37
2022-08-03T20:36:38.554Z,4.07
2022-08-03T20:39:11.232Z,3.90
2022-08-03T20:41:38.520Z,4.20
2022-08-03T20:44:09.073Z,4.07
2022-08-03T20:46:53.086Z,4.13
2022-08-03T20:49:46.396Z,4.03
2022-08-03T20:52:18.843Z,3.53
2022-08-03T20:54:47.907Z,4.13
2022-08-03T20:57:16.786Z,4.60
2022-08-03T20:59:50.308Z,4.97
2022-08-03T21:05:10.576Z,3.97
2022-08-03T21:08:06.014Z,3.90
2022-08-03T21:10:38.567Z,3.63
2022-08-03T21:13:04.625Z,3.08
2022-08-03T21:13:07.897Z,4.73
2022-08-03T21:13:18.039Z,3.80
2022-08-03T21:16:02.424Z,4.23
2022-08-03T21:18:52.114Z,3.50
2022-08-03T21:21:23.040Z,3.93
2022-08-03T21:23:55.383Z,3.80
2022-08-03T21:26:25.665Z,3.53
2022-08-03T21:28:56.989Z,4.03
2022-08-03T21:31:27.245Z,4.13
2022-08-03T21:34:04.842Z,3.70
2022-08-03T21:36:38.445Z,3.97
2022-08-03T21:39:09.828Z,4.07
2022-08-03T21:41:39.152Z,3.80
2022-08-03T21:44:11.455Z,4.00
2022-08-03T21:46:45.276Z,3.13
2022-08-03T21:50:04.750Z,3.57
2022-08-03T21:52:09.519Z,3.50
2022-08-03T21:54:42.746Z,3.93
2022-08-03T21:57:25.890Z,3.60
2022-08-03T22:00:02.188Z,3.87
2022-08-03T22:02:32.169Z,3.43
2022-08-03T22:04:59.457Z,3.80
2022-08-03T22:07:29.323Z,3.60
2022-08-03T22:10:01.652Z,4.30
2022-08-03T22:12:34.213Z,3.73
2022-08-03T22:15:06.308Z,3.17
2022-08-03T22:17:55.173Z,3.50
2022-08-03T22:20:26.460Z,3.50
2022-08-03T22:23:04.581Z,3.73
2022-08-03T22:25:42.372Z,3.60
2022-08-03T22:28:17.127Z,3.10
2022-08-03T22:30:44.399Z,3.63
2022-08-03T22:33:15.917Z,3.50
2022-08-03T22:35:48.997Z,3.60
2022-08-03T22:38:18.696Z,3.43
2022-08-03T22:40:52.642Z,3.83
2022-08-03T22:43:24.995Z,3.70
2022-08-03T22:46:11.196Z,3.70
2022-08-03T22:48:46.769Z,3.50
2022-08-03T22:51:19.728Z,3.77
2022-08-03T22:53:47.349Z,3.50
2022-08-03T22:56:17.545Z,3.77
2022-08-03T22:58:44.762Z,3.83
2022-08-03T23:01:19.317Z,3.70
2022-08-03T23:04:02.005Z,3.47
2022-08-03T23:06:38.556Z,3.63
2022-08-03T23:09:13.368Z,4.03
2022-08-03T23:11:46.671Z,3.40
2022-08-03T23:14:17.189Z,3.80
2022-08-03T23:16:47.077Z,3.63
2022-08-03T23:19:25.468Z,3.50
2022-08-03T23:22:02.133Z,3.77
2022-08-03T23:24:35.683Z,3.60
2022-08-03T23:27:09.089Z,4.20
2022-08-03T23:29:39.107Z,3.67
2022-08-03T23:32:07.464Z,3.70
2022-08-03T23:34:56.667Z,3.90
2022-08-03T23:37:25.754Z,3.60
2022-08-03T23:39:54.705Z,4.20
2022-08-03T23:42:27.306Z,3.67
2022-08-03T23:44:59.496Z,3.63
2022-08-03T23:47:45.934Z,4.10
2022-08-03T23:50:17.693Z,3.97
2022-08-03T23:53:02.069Z,4.10
2022-08-03T23:56:08.445Z,3.70
2022-08-03T23:59:36.515Z,3.60
